Weather at Cortina Airport [CLOSED]

Public forecast

Using degrees Celsius for public forecast. Weather courtesy of forecast.io.

Closest aviation weather report (METAR) to Cortina Airport

Closest report is Dobbiaco - Toblach, 10.3 nm (19.2 km) NNE. Retrieved 2021/07/29 07:55 UTC (53 minutes ago):

LIVD 290755Z /////KT 9999 FEW025 17/11 Q1021 RMK FEW VIS MIN 9999

Closest aviation forecast (TAF) to Cortina Airport

Closest forecast is Bolzano Airport, 33.4 nm (61.9 km) WSW. Retrieved 2021/07/29 06:24 UTC (2 hours ago):

TAF TAF LIPB 290500Z 2906/3006 VRB05KT 9999 SCT050 BECMG 2910/2912 19011KT TEMPO 2913/2916 SHRA BECMG 2916/2918 VRB05KT